Taloyoak, Canada
Current Conditions -  °F | °C
As of 12:00 PM on Wednesday 26 Nov 2014 (Local Time) from CYYH Reporting Station
Light Snow Light Snow  
Wind Chill: -17°   Ceiling: 8000
Heat Index: -17°   Visibility: 8mi
Dew Point: -24°   Wind: 0mph
Humidity: 70%   Direction: NA
Pressure: 29.57"   Gusts: NA
Location:  69.53°N, 93.53°W
Report Text: CYYH 261800Z 00000KT 8SM -SN SCT025 BKN080 M27/M31 A2957 RMK SC2AC2 SLP019
Loading
Personal Weather Stations






























Interactive Weather Map New forecast layout! Learn more

10-Day Weather Forecast

Advertisements
Track Severe Weather on mobile